Time;durP1;ratioP1;P1;durP2;ratioP2;P2;SDS_P1;SDS_P2;PMS_P1;PMS_P2;Temp;Humidity;BMP_temperature;BMP_pressure;BME280_temperature;BME280_humidity;BME280_pressure;Samples;Min_cycle;Max_cycle;Signal;HPM_P1;HPM_P2
2020/12/07 00:02:18;;;;;;;67.47;39.33;;;;;;;;;;5023861;28;20294;-73
2020/12/07 00:04:44;;;;;;;58.40;34.38;;;;;;;;;;5030107;28;20510;-73
2020/12/07 00:07:10;;;;;;;60.70;34.43;;;;;;;;;;5031800;28;20182;-73
2020/12/07 00:09:36;;;;;;;72.75;37.00;;;;;;;;;;5014633;28;20424;-73
2020/12/07 00:12:04;;;;;;;60.05;33.85;;;;;;;;;;5032386;28;20224;-73
2020/12/07 00:14:30;;;;;;;52.50;33.17;;;;;;;;;;5032544;28;20205;-73
2020/12/07 00:16:56;;;;;;;55.30;33.10;;;;;;;;;;5032092;28;20309;-73
2020/12/07 00:19:22;;;;;;;52.00;31.33;;;;;;;;;;5031740;28;20437;-73
2020/12/07 00:21:48;;;;;;;53.70;32.43;;;;;;;;;;5029664;28;20499;-73
2020/12/07 00:24:16;;;;;;;54.43;34.67;;;;;;;;;;5031913;28;20468;-74
2020/12/07 00:26:45;;;;;;;41.10;30.65;;;;;;;;;;5002269;28;20508;-73
2020/12/07 00:29:15;;;;;;;36.90;26.38;;;;;;;;;;5026378;28;20182;-73
2020/12/07 00:31:41;;;;;;;39.33;28.63;;;;;;;;;;5032336;28;20204;-73
2020/12/07 00:34:07;;;;;;;42.05;28.40;;;;;;;;;;5031902;28;20273;-73
2020/12/07 00:36:33;;;;;;;35.93;26.67;;;;;;;;;;5031726;28;20218;-74
2020/12/07 00:38:59;;;;;;;39.83;25.60;;;;;;;;;;5031574;28;20432;-73
2020/12/07 00:41:25;;;;;;;35.43;27.20;;;;;;;;;;5031955;28;20471;-73
2020/12/07 00:43:51;;;;;;;39.25;27.77;;;;;;;;;;5031826;28;20448;-73
2020/12/07 00:46:18;;;;;;;37.10;28.50;;;;;;;;;;5007944;28;20179;-73
2020/12/07 00:48:44;;;;;;;40.72;28.27;;;;;;;;;;5012352;28;20167;-73
2020/12/07 00:51:10;;;;;;;39.58;27.50;;;;;;;;;;5011882;28;20233;-73
2020/12/07 00:53:36;;;;;;;44.40;30.97;;;;;;;;;;5025422;28;20190;-73
2020/12/07 00:56:02;;;;;;;36.72;26.73;;;;;;;;;;5031325;28;20441;-74
2020/12/07 00:58:28;;;;;;;44.58;28.83;;;;;;;;;;5031593;28;20185;-73
2020/12/07 01:00:54;;;;;;;41.72;29.13;;;;;;;;;;5031117;28;20221;-73
2020/12/07 01:03:20;;;;;;;38.42;27.20;;;;;;;;;;5030343;28;20213;-73
2020/12/07 01:05:46;;;;;;;41.83;28.73;;;;;;;;;;4998523;28;20183;-73
2020/12/07 01:08:12;;;;;;;43.90;28.57;;;;;;;;;;5018125;28;20252;-73
2020/12/07 01:10:38;;;;;;;37.73;28.80;;;;;;;;;;5031419;28;20448;-73
2020/12/07 01:13:06;;;;;;;43.00;31.27;;;;;;;;;;5017920;28;20438;-73
2020/12/07 01:15:32;;;;;;;50.65;29.40;;;;;;;;;;5030270;28;20978;-73
2020/12/07 01:17:58;;;;;;;44.38;29.67;;;;;;;;;;5029569;28;20221;-73
2020/12/07 01:20:24;;;;;;;44.43;30.77;;;;;;;;;;5031113;28;20222;-73
2020/12/07 01:22:50;;;;;;;43.17;30.13;;;;;;;;;;5013328;28;20459;-73
2020/12/07 01:25:16;;;;;;;42.53;29.03;;;;;;;;;;5031069;28;20476;-73
2020/12/07 01:27:42;;;;;;;40.33;29.77;;;;;;;;;;5021920;28;20487;-73
2020/12/07 01:30:08;;;;;;;44.20;29.55;;;;;;;;;;5028742;28;20186;-73
2020/12/07 01:32:34;;;;;;;49.70;31.60;;;;;;;;;;5029279;28;20198;-73
2020/12/07 01:35:00;;;;;;;40.13;27.70;;;;;;;;;;5030666;28;20439;-73
2020/12/07 01:37:26;;;;;;;45.83;29.13;;;;;;;;;;5029851;28;20487;-73
2020/12/07 01:39:52;;;;;;;42.73;26.60;;;;;;;;;;5030485;28;20179;-73
2020/12/07 01:42:18;;;;;;;39.73;28.53;;;;;;;;;;5027134;28;20444;-73
2020/12/07 01:44:44;;;;;;;44.90;29.25;;;;;;;;;;5030594;28;20484;-73
2020/12/07 01:47:20;;;;;;;39.65;28.88;;;;;;;;;;5029311;28;20216;-73
2020/12/07 01:49:46;;;;;;;41.85;28.20;;;;;;;;;;5030512;28;20178;-73
2020/12/07 01:52:12;;;;;;;41.60;27.98;;;;;;;;;;5030729;28;20194;-73
2020/12/07 01:54:38;;;;;;;39.92;27.85;;;;;;;;;;5019603;28;20189;-73
2020/12/07 01:57:05;;;;;;;40.73;27.30;;;;;;;;;;5030459;28;20178;-73
2020/12/07 01:59:31;;;;;;;38.40;25.80;;;;;;;;;;5030054;28;20445;-73
2020/12/07 02:01:57;;;;;;;46.30;27.70;;;;;;;;;;5029416;28;20205;-73
2020/12/07 02:04:23;;;;;;;37.40;27.73;;;;;;;;;;5030115;28;20464;-73
2020/12/07 02:06:49;;;;;;;37.13;24.40;;;;;;;;;;5029555;28;20624;-72
2020/12/07 02:09:15;;;;;;;39.00;26.37;;;;;;;;;;5021720;28;20441;-73
2020/12/07 02:11:41;;;;;;;44.23;26.20;;;;;;;;;;5025205;28;20452;-72
2020/12/07 02:14:07;;;;;;;38.65;28.52;;;;;;;;;;5029396;28;20432;-72
2020/12/07 02:16:33;;;;;;;32.95;25.13;;;;;;;;;;5036760;28;20269;-73
2020/12/07 02:18:59;;;;;;;38.97;24.87;;;;;;;;;;5037118;28;20614;-72
2020/12/07 02:21:25;;;;;;;36.27;23.33;;;;;;;;;;5018842;28;20476;-73
2020/12/07 02:23:50;;;;;;;34.90;24.07;;;;;;;;;;5036586;28;20460;-72
2020/12/07 02:26:16;;;;;;;30.90;22.23;;;;;;;;;;5036726;28;20498;-72
2020/12/07 02:28:42;;;;;;;28.37;21.20;;;;;;;;;;5037256;28;20249;-72
2020/12/07 02:31:08;;;;;;;36.00;21.60;;;;;;;;;;5036501;28;20452;-72
2020/12/07 02:33:34;;;;;;;32.37;23.50;;;;;;;;;;5036320;28;20432;-72
2020/12/07 02:36:02;;;;;;;31.93;21.13;;;;;;;;;;5037133;28;20515;-72
2020/12/07 02:38:28;;;;;;;31.38;24.95;;;;;;;;;;5033323;28;20447;-72
2020/12/07 02:40:54;;;;;;;35.30;22.70;;;;;;;;;;5035904;28;20272;-73
2020/12/07 02:43:19;;;;;;;32.90;21.77;;;;;;;;;;5036345;28;20421;-72
2020/12/07 02:45:45;;;;;;;29.40;22.27;;;;;;;;;;5035819;28;20475;-72
2020/12/07 02:48:13;;;;;;;41.17;24.37;;;;;;;;;;5036130;28;20449;-72
2020/12/07 02:50:39;;;;;;;32.95;22.60;;;;;;;;;;5036739;28;20519;-72
2020/12/07 02:53:05;;;;;;;37.47;25.30;;;;;;;;;;5036648;28;20258;-72
2020/12/07 02:55:31;;;;;;;37.07;25.77;;;;;;;;;;5017793;28;20843;-72
2020/12/07 02:57:57;;;;;;;46.37;31.00;;;;;;;;;;5028641;28;20449;-72
2020/12/07 03:00:23;;;;;;;43.00;29.90;;;;;;;;;;5028586;28;20428;-72
2020/12/07 03:02:49;;;;;;;45.30;29.95;;;;;;;;;;5030222;28;20453;-72
2020/12/07 03:05:15;;;;;;;47.93;29.80;;;;;;;;;;5035968;28;20206;-73
2020/12/07 03:07:41;;;;;;;49.07;31.23;;;;;;;;;;5036436;28;20424;-73
2020/12/07 03:10:08;;;;;;;48.67;31.67;;;;;;;;;;5036818;28;20468;-73
2020/12/07 03:12:34;;;;;;;45.15;31.77;;;;;;;;;;5033423;28;20459;-73
2020/12/07 03:15:00;;;;;;;51.13;32.25;;;;;;;;;;5036087;28;20186;-73
2020/12/07 03:17:26;;;;;;;57.30;33.35;;;;;;;;;;5034536;28;20228;-72
2020/12/07 03:19:52;;;;;;;42.15;29.55;;;;;;;;;;5027001;28;20186;-73
2020/12/07 03:22:18;;;;;;;57.03;32.70;;;;;;;;;;5035826;28;20717;-72
2020/12/07 03:24:44;;;;;;;43.35;28.05;;;;;;;;;;5034380;28;20198;-72
2020/12/07 03:27:10;;;;;;;49.60;30.00;;;;;;;;;;5033348;28;20178;-72
2020/12/07 03:29:36;;;;;;;60.43;34.00;;;;;;;;;;5032145;28;20473;-73
2020/12/07 03:32:02;;;;;;;47.93;31.33;;;;;;;;;;5032789;28;20445;-73
2020/12/07 03:34:28;;;;;;;56.75;30.98;;;;;;;;;;5032606;28;20436;-72
2020/12/07 03:36:54;;;;;;;48.75;30.27;;;;;;;;;;5033197;28;20262;-73
2020/12/07 03:39:20;;;;;;;46.63;29.57;;;;;;;;;;5032087;28;20653;-73
2020/12/07 03:41:46;;;;;;;47.25;30.13;;;;;;;;;;5032609;28;20483;-73
2020/12/07 03:44:14;;;;;;;47.38;27.25;;;;;;;;;;5030896;28;20210;-72
2020/12/07 03:46:40;;;;;;;46.35;31.05;;;;;;;;;;5009757;28;20185;-73
2020/12/07 03:49:06;;;;;;;52.37;32.37;;;;;;;;;;5029094;28;20265;-73
2020/12/07 03:51:35;;;;;;;55.70;32.13;;;;;;;;;;5032698;28;20441;-73
2020/12/07 03:54:01;;;;;;;52.72;33.33;;;;;;;;;;5032832;28;20182;-73
2020/12/07 03:56:27;;;;;;;52.58;32.25;;;;;;;;;;5032589;28;20731;-72
2020/12/07 03:58:53;;;;;;;51.58;32.17;;;;;;;;;;5030519;28;20186;-73
2020/12/07 04:01:19;;;;;;;51.80;32.47;;;;;;;;;;5014330;28;20200;-73
2020/12/07 04:03:53;;;;;;;53.70;32.13;;;;;;;;;;5013990;28;20186;-73
2020/12/07 04:06:29;;;;;;;54.38;32.33;;;;;;;;;;5024389;28;20447;-73
2020/12/07 04:08:57;;;;;;;52.35;32.17;;;;;;;;;;5018137;28;20184;-72
2020/12/07 04:11:23;;;;;;;47.22;29.75;;;;;;;;;;5032510;28;20194;-73
2020/12/07 04:13:49;;;;;;;50.65;30.40;;;;;;;;;;5032445;28;20600;-72
2020/12/07 04:16:15;;;;;;;50.17;31.10;;;;;;;;;;5028920;28;20188;-73
2020/12/07 04:18:41;;;;;;;49.20;30.57;;;;;;;;;;5032251;28;20279;-73
2020/12/07 04:21:07;;;;;;;42.17;26.37;;;;;;;;;;5032241;28;20445;-73
2020/12/07 04:23:33;;;;;;;45.07;31.00;;;;;;;;;;5031808;28;20528;-73
2020/12/07 04:26:05;;;;;;;43.65;29.77;;;;;;;;;;5031630;28;20456;-73
2020/12/07 04:28:30;;;;;;;56.22;30.50;;;;;;;;;;5030725;28;20182;-73
2020/12/07 04:30:56;;;;;;;52.80;30.60;;;;;;;;;;5031987;28;20185;-73
2020/12/07 04:33:22;;;;;;;50.63;27.75;;;;;;;;;;5031179;28;20456;-73
2020/12/07 04:35:49;;;;;;;48.07;29.93;;;;;;;;;;5031731;28;20631;-73
2020/12/07 04:38:15;;;;;;;47.58;28.38;;;;;;;;;;5030569;28;20476;-73
2020/12/07 04:40:43;;;;;;;46.00;28.48;;;;;;;;;;5028874;28;20214;-73
2020/12/07 04:43:09;;;;;;;39.45;26.55;;;;;;;;;;5031789;28;20577;-73
2020/12/07 04:45:35;;;;;;;43.15;27.00;;;;;;;;;;5018904;28;20351;-73
2020/12/07 04:48:01;;;;;;;40.50;27.10;;;;;;;;;;5021618;28;20175;-73
2020/12/07 04:50:29;;;;;;;40.08;25.50;;;;;;;;;;5031779;28;20440;-73
2020/12/07 04:52:56;;;;;;;42.45;26.00;;;;;;;;;;5031113;28;20229;-73
2020/12/07 04:55:22;;;;;;;47.80;27.77;;;;;;;;;;5013793;28;20189;-73
2020/12/07 04:57:49;;;;;;;48.60;26.03;;;;;;;;;;5030825;28;20186;-73
2020/12/07 05:00:16;;;;;;;44.20;26.33;;;;;;;;;;5031321;28;20420;-73
2020/12/07 05:02:41;;;;;;;44.05;25.67;;;;;;;;;;5031215;28;20206;-73
2020/12/07 05:05:08;;;;;;;34.30;24.53;;;;;;;;;;5013560;28;20221;-73
2020/12/07 05:07:35;;;;;;;39.25;24.70;;;;;;;;;;5030431;28;20476;-72
2020/12/07 05:10:14;;;;;;;43.45;28.48;;;;;;;;;;5031127;28;20308;-73
2020/12/07 05:12:45;;;;;;;37.50;26.30;;;;;;;;;;5029651;28;20550;-73
2020/12/07 05:15:15;;;;;;;50.30;27.52;;;;;;;;;;5025204;28;20611;-73
2020/12/07 05:17:44;;;;;;;44.25;28.27;;;;;;;;;;5030384;28;20261;-73
2020/12/07 05:20:10;;;;;;;46.22;26.98;;;;;;;;;;5022082;28;20193;-73
2020/12/07 05:22:39;;;;;;;41.07;28.10;;;;;;;;;;5029691;28;20305;-74
2020/12/07 05:25:05;;;;;;;41.55;29.08;;;;;;;;;;5025179;28;20517;-74
2020/12/07 05:27:32;;;;;;;43.58;28.08;;;;;;;;;;5013998;28;20210;-72
2020/12/07 05:30:07;;;;;;;51.05;27.55;;;;;;;;;;5030965;28;20650;-73
2020/12/07 05:32:36;;;;;;;45.15;28.85;;;;;;;;;;5030318;28;20252;-73
2020/12/07 05:35:02;;;;;;;45.25;28.35;;;;;;;;;;5031056;28;20307;-72
2020/12/07 05:37:34;;;;;;;46.67;28.80;;;;;;;;;;5022317;28;20190;-73
2020/12/07 05:40:01;;;;;;;46.22;29.88;;;;;;;;;;5030654;28;20696;-73
2020/12/07 05:42:28;;;;;;;44.63;29.48;;;;;;;;;;5030842;28;20265;-73
2020/12/07 05:44:56;;;;;;;43.88;30.95;;;;;;;;;;5019405;28;20226;-72
2020/12/07 05:47:24;;;;;;;52.45;33.10;;;;;;;;;;5028948;28;20460;-72
2020/12/07 05:49:51;;;;;;;50.53;31.80;;;;;;;;;;5029881;28;20966;-72
2020/12/07 05:52:29;;;;;;;49.95;30.52;;;;;;;;;;5029352;28;20214;-72
2020/12/07 05:54:55;;;;;;;42.40;28.10;;;;;;;;;;5030305;28;20182;-72
2020/12/07 05:57:27;;;;;;;43.33;28.63;;;;;;;;;;5028739;28;20224;-72
2020/12/07 05:59:55;;;;;;;42.13;27.70;;;;;;;;;;5030081;28;20181;-72
2020/12/07 06:02:22;;;;;;;51.55;31.20;;;;;;;;;;5024676;28;20289;-72
2020/12/07 06:04:48;;;;;;;46.80;28.33;;;;;;;;;;5027610;28;20596;-72
2020/12/07 06:07:16;;;;;;;46.45;31.10;;;;;;;;;;5030259;28;20184;-71
2020/12/07 06:09:42;;;;;;;42.00;26.75;;;;;;;;;;5018821;28;20178;-72
2020/12/07 06:12:19;;;;;;;46.20;28.45;;;;;;;;;;5028436;28;20206;-72
2020/12/07 06:14:45;;;;;;;46.40;27.25;;;;;;;;;;5030280;28;20695;-71
2020/12/07 06:17:13;;;;;;;48.15;31.30;;;;;;;;;;5029181;28;20662;-72
2020/12/07 06:19:39;;;;;;;43.92;29.30;;;;;;;;;;5030140;28;20649;-72
2020/12/07 06:22:08;;;;;;;55.40;31.05;;;;;;;;;;5029078;28;20241;-72
2020/12/07 06:24:41;;;;;;;49.38;30.17;;;;;;;;;;5029724;28;20209;-72
2020/12/07 06:27:14;;;;;;;46.10;30.50;;;;;;;;;;5027083;28;20188;-71
2020/12/07 06:29:55;;;;;;;55.92;28.95;;;;;;;;;;5030026;28;20178;-73
2020/12/07 06:32:21;;;;;;;55.30;29.90;;;;;;;;;;5028670;28;20198;-72
2020/12/07 06:34:57;;;;;;;54.47;31.80;;;;;;;;;;5029627;28;20182;-72
2020/12/07 06:37:25;;;;;;;47.20;29.98;;;;;;;;;;5028908;28;20878;-72
2020/12/07 06:39:51;;;;;;;59.97;34.83;;;;;;;;;;5022157;28;20195;-71
2020/12/07 06:42:19;;;;;;;47.20;30.55;;;;;;;;;;5027871;28;20233;-72
2020/12/07 06:44:47;;;;;;;54.08;31.35;;;;;;;;;;5029159;28;20632;-72
2020/12/07 06:47:19;;;;;;;53.53;32.17;;;;;;;;;;5029627;28;20257;-72
2020/12/07 06:52:17;;;;;;;48.50;29.88;;;;;;;;;;5029447;28;20202;-71
2020/12/07 06:57:28;;;;;;;44.28;28.40;;;;;;;;;;5029156;28;20404;-71
2020/12/07 07:00:02;;;;;;;44.28;26.90;;;;;;;;;;5028630;28;20640;-72
2020/12/07 07:02:29;;;;;;;47.90;29.73;;;;;;;;;;5032878;28;20224;-72
2020/12/07 07:04:56;;;;;;;48.60;29.13;;;;;;;;;;5033435;28;20206;-71
2020/12/07 07:07:23;;;;;;;46.45;26.88;;;;;;;;;;5032459;28;20192;-72
2020/12/07 07:09:49;;;;;;;42.40;27.77;;;;;;;;;;5030915;28;20241;-72
2020/12/07 07:12:15;;;;;;;43.40;26.83;;;;;;;;;;5030858;28;20252;-72
2020/12/07 07:14:42;;;;;;;42.97;27.17;;;;;;;;;;5030510;28;20190;-72
2020/12/07 07:17:09;;;;;;;46.22;26.13;;;;;;;;;;5032172;28;20248;-72
2020/12/07 07:19:35;;;;;;;35.83;24.60;;;;;;;;;;5030221;28;20221;-71
2020/12/07 07:22:01;;;;;;;42.30;27.30;;;;;;;;;;5030034;28;20210;-72
2020/12/07 07:24:36;;;;;;;38.85;23.90;;;;;;;;;;5030917;28;20375;-71
2020/12/07 07:27:57;;;;;;;42.67;27.10;;;;;;;;;;5030869;28;20207;-72
2020/12/07 07:29:52;;;;;;;39.05;25.95;;;;;;;;;;5031435;28;20240;-72
2020/12/07 07:32:18;;;;;;;44.70;28.30;;;;;;;;;;5032840;28;20197;-72
2020/12/07 07:34:46;;;;;;;40.20;27.15;;;;;;;;;;5030528;28;20186;-72
2020/12/07 07:37:13;;;;;;;46.63;27.92;;;;;;;;;;5033168;28;20224;-72
2020/12/07 07:39:39;;;;;;;41.15;27.45;;;;;;;;;;5032588;28;20567;-72
2020/12/07 07:42:06;;;;;;;44.67;27.57;;;;;;;;;;5023478;28;20206;-73
2020/12/07 07:44:32;;;;;;;43.72;27.15;;;;;;;;;;5032316;28;20486;-72
2020/12/07 07:47:01;;;;;;;38.78;25.00;;;;;;;;;;5032949;28;20178;-72
2020/12/07 07:49:38;;;;;;;41.08;22.80;;;;;;;;;;5028138;28;20179;-72
2020/12/07 07:52:37;;;;;;;36.45;25.13;;;;;;;;;;5013371;28;20190;-71
2020/12/07 08:05:54;;;;;;;36.63;21.80;;;;;;;;;;5027306;28;20301;-72
2020/12/07 08:16:58;;;;;;;39.78;23.33;;;;;;;;;;5012502;28;20190;-72
2020/12/07 08:19:29;;;;;;;34.72;21.73;;;;;;;;;;5027878;28;20232;-71
2020/12/07 08:21:55;;;;;;;39.70;22.63;;;;;;;;;;5027434;28;20635;-71
2020/12/07 08:24:21;;;;;;;31.02;21.02;;;;;;;;;;5004096;28;20273;-72
2020/12/07 08:26:47;;;;;;;34.47;20.80;;;;;;;;;;5032131;28;20174;-72
2020/12/07 08:29:14;;;;;;;32.35;19.65;;;;;;;;;;5031773;28;20184;-71
2020/12/07 08:31:40;;;;;;;37.30;23.10;;;;;;;;;;5032076;28;20673;-71
2020/12/07 08:34:11;;;;;;;34.25;24.00;;;;;;;;;;5031982;28;20653;-71
2020/12/07 08:36:37;;;;;;;38.88;20.98;;;;;;;;;;5013639;28;20189;-72
2020/12/07 08:39:04;;;;;;;35.50;21.40;;;;;;;;;;5031995;28;20174;-72
2020/12/07 08:41:31;;;;;;;30.83;19.73;;;;;;;;;;4997212;28;20682;-71
2020/12/07 08:44:07;;;;;;;29.15;18.67;;;;;;;;;;5038300;28;20173;-71
2020/12/07 08:46:34;;;;;;;29.50;18.75;;;;;;;;;;5033142;28;20206;-72
2020/12/07 08:49:03;;;;;;;32.03;18.38;;;;;;;;;;5030485;28;20178;-71
2020/12/07 08:51:31;;;;;;;34.20;22.20;;;;;;;;;;5031085;28;20617;-72
2020/12/07 08:53:57;;;;;;;28.42;18.67;;;;;;;;;;5031383;28;20186;-72
2020/12/07 08:56:24;;;;;;;28.80;16.40;;;;;;;;;;4996655;28;20185;-71
2020/12/07 08:58:50;;;;;;;39.90;28.67;;;;;;;;;;5030752;28;20170;-72
2020/12/07 09:01:16;;;;;;;27.92;17.52;;;;;;;;;;5030647;28;20636;-71
2020/12/07 09:03:44;;;;;;;27.85;17.40;;;;;;;;;;5030764;28;20175;-71
2020/12/07 09:06:12;;;;;;;27.95;15.32;;;;;;;;;;5031086;28;20198;-71
2020/12/07 09:08:37;;;;;;;25.17;14.73;;;;;;;;;;5025245;28;20262;-72
2020/12/07 09:11:04;;;;;;;29.10;16.77;;;;;;;;;;5027211;28;20281;-71
2020/12/07 09:13:30;;;;;;;22.10;14.07;;;;;;;;;;5031030;28;20900;-72
2020/12/07 09:15:56;;;;;;;22.98;13.35;;;;;;;;;;5029973;28;20181;-71
2020/12/07 09:18:22;;;;;;;21.63;12.82;;;;;;;;;;5028590;28;20194;-71
2020/12/07 09:20:49;;;;;;;20.77;13.65;;;;;;;;;;5023524;28;20244;-71
2020/12/07 09:23:15;;;;;;;19.65;12.73;;;;;;;;;;5027500;28;20548;-71
2020/12/07 09:25:41;;;;;;;21.70;14.82;;;;;;;;;;5029331;28;20206;-71
2020/12/07 09:28:08;;;;;;;16.50;11.20;;;;;;;;;;5030694;28;20260;-71
2020/12/07 09:30:33;;;;;;;18.23;11.88;;;;;;;;;;5030663;28;20189;-72
2020/12/07 09:33:03;;;;;;;28.80;21.60;;;;;;;;;;5030604;28;20206;-71
2020/12/07 09:35:29;;;;;;;25.00;18.65;;;;;;;;;;5030425;28;20837;-72
2020/12/07 09:37:57;;;;;;;16.83;13.00;;;;;;;;;;5027860;28;20228;-71
2020/12/07 09:40:24;;;;;;;21.35;12.88;;;;;;;;;;5022474;28;21054;-71
2020/12/07 09:42:50;;;;;;;18.08;13.70;;;;;;;;;;5025038;28;20268;-71
2020/12/07 09:45:18;;;;;;;17.40;11.87;;;;;;;;;;5029959;28;20209;-71
2020/12/07 09:47:44;;;;;;;23.13;12.82;;;;;;;;;;5030307;28;20461;-71
2020/12/07 09:50:10;;;;;;;15.90;11.97;;;;;;;;;;5030347;28;20744;-71
2020/12/07 09:52:37;;;;;;;18.92;12.40;;;;;;;;;;5030221;28;20476;-71
2020/12/07 09:55:03;;;;;;;17.92;11.73;;;;;;;;;;5029201;28;20186;-71
2020/12/07 09:57:29;;;;;;;18.05;11.63;;;;;;;;;;5030560;28;20206;-73
2020/12/07 09:59:57;;;;;;;17.30;12.90;;;;;;;;;;5030279;28;20266;-71
2020/12/07 10:02:23;;;;;;;20.88;12.30;;;;;;;;;;5027105;28;20465;-71
2020/12/07 10:04:49;;;;;;;17.42;10.70;;;;;;;;;;5024506;28;20762;-71
2020/12/07 10:07:15;;;;;;;19.90;14.10;;;;;;;;;;5029724;28;20173;-71
2020/12/07 10:09:41;;;;;;;16.75;11.40;;;;;;;;;;5030162;28;20260;-71
2020/12/07 10:12:07;;;;;;;21.63;12.25;;;;;;;;;;5022376;28;20207;-71
2020/12/07 10:14:33;;;;;;;18.15;13.35;;;;;;;;;;5030135;28;20197;-71
2020/12/07 10:17:01;;;;;;;20.27;12.88;;;;;;;;;;5029640;28;20174;-71
2020/12/07 10:19:27;;;;;;;16.30;11.40;;;;;;;;;;5020108;28;20703;-71
2020/12/07 10:21:54;;;;;;;19.43;13.00;;;;;;;;;;5029945;28;20213;-72
2020/12/07 10:24:20;;;;;;;16.30;10.52;;;;;;;;;;5030034;28;20436;-72
2020/12/07 10:26:46;;;;;;;16.23;11.50;;;;;;;;;;5029140;28;20206;-71
2020/12/07 10:29:12;;;;;;;16.13;10.93;;;;;;;;;;5007377;28;20181;-72
2020/12/07 10:31:38;;;;;;;17.92;11.00;;;;;;;;;;5029577;28;20436;-71
2020/12/07 10:34:04;;;;;;;12.23;8.57;;;;;;;;;;5030492;28;20183;-72
2020/12/07 10:36:30;;;;;;;12.70;8.80;;;;;;;;;;5034364;28;20432;-72
2020/12/07 10:38:56;;;;;;;12.23;8.88;;;;;;;;;;5033394;28;20424;-72
2020/12/07 10:41:30;;;;;;;11.68;8.85;;;;;;;;;;5032245;28;20248;-72
2020/12/07 10:43:57;;;;;;;18.35;10.55;;;;;;;;;;5033899;28;20182;-72
2020/12/07 10:46:23;;;;;;;12.25;8.05;;;;;;;;;;5031837;28;20217;-72
2020/12/07 10:48:49;;;;;;;10.52;7.88;;;;;;;;;;5032456;28;20190;-72
2020/12/07 10:51:16;;;;;;;10.80;7.25;;;;;;;;;;5033614;28;20202;-72
2020/12/07 10:53:42;;;;;;;8.80;6.25;;;;;;;;;;5033510;28;20180;-72
2020/12/07 10:56:09;;;;;;;7.80;6.80;;;;;;;;;;5032792;28;20590;-72
2020/12/07 10:58:35;;;;;;;7.78;6.68;;;;;;;;;;5024787;28;20427;-72
2020/12/07 11:01:02;;;;;;;7.55;6.32;;;;;;;;;;5015587;28;20402;-72
2020/12/07 11:03:28;;;;;;;8.13;6.30;;;;;;;;;;5021185;28;20572;-72
2020/12/07 11:05:54;;;;;;;8.30;6.60;;;;;;;;;;5027950;28;20221;-72
2020/12/07 11:08:35;;;;;;;5.82;5.30;;;;;;;;;;5033010;28;20208;-72
2020/12/07 11:11:01;;;;;;;10.07;5.80;;;;;;;;;;5026594;28;20202;-72
2020/12/07 11:13:32;;;;;;;7.27;5.63;;;;;;;;;;5032351;28;20312;-72
2020/12/07 11:16:04;;;;;;;9.40;6.40;;;;;;;;;;5032385;28;20443;-72
2020/12/07 11:18:30;;;;;;;6.07;5.53;;;;;;;;;;5028280;28;20265;-72
2020/12/07 11:20:56;;;;;;;5.70;5.10;;;;;;;;;;5030477;28;20265;-72
2020/12/07 11:23:23;;;;;;;9.25;6.28;;;;;;;;;;5032463;28;20725;-72
2020/12/07 11:25:49;;;;;;;7.00;5.82;;;;;;;;;;5027944;28;20210;-73
2020/12/07 11:28:15;;;;;;;6.23;5.63;;;;;;;;;;5025918;28;20622;-72
2020/12/07 11:30:40;;;;;;;8.73;5.37;;;;;;;;;;5032349;28;20425;-72
2020/12/07 11:33:06;;;;;;;9.40;7.60;;;;;;;;;;5029307;28;20447;-71
2020/12/07 11:35:32;;;;;;;7.38;6.50;;;;;;;;;;5023788;28;20453;-72
2020/12/07 11:41:36;;;;;;;8.10;6.85;;;;;;;;;;5003771;28;20264;-72
2020/12/07 11:46:39;;;;;;;8.55;6.38;;;;;;;;;;5028823;28;20214;-72
2020/12/07 11:49:05;;;;;;;10.68;7.75;;;;;;;;;;5030755;28;20558;-72
2020/12/07 11:51:31;;;;;;;9.90;7.82;;;;;;;;;;5031739;28;20286;-73
2020/12/07 11:53:57;;;;;;;11.50;7.70;;;;;;;;;;5017337;28;20202;-72
2020/12/07 11:56:30;;;;;;;9.00;5.97;;;;;;;;;;5023145;28;20538;-72
2020/12/07 11:58:56;;;;;;;7.72;5.80;;;;;;;;;;5013172;28;20955;-72
2020/12/07 12:01:22;;;;;;;6.43;5.00;;;;;;;;;;5023029;28;20202;-72
2020/12/07 12:03:49;;;;;;;5.72;3.95;;;;;;;;;;5031693;28;20182;-72
2020/12/07 12:06:25;;;;;;;4.70;4.20;;;;;;;;;;5028347;28;20202;-72
2020/12/07 12:08:54;;;;;;;9.77;4.72;;;;;;;;;;5026984;28;20182;-72
2020/12/07 12:11:23;;;;;;;7.30;4.88;;;;;;;;;;5031458;28;20202;-72
2020/12/07 12:13:49;;;;;;;6.45;3.53;;;;;;;;;;5031253;28;20183;-71
2020/12/07 12:16:17;;;;;;;4.55;4.15;;;;;;;;;;5027289;28;20316;-72
2020/12/07 12:18:43;;;;;;;4.53;3.35;;;;;;;;;;4997275;28;20698;-72
2020/12/07 12:21:11;;;;;;;4.93;3.87;;;;;;;;;;5031167;28;20216;-72
2020/12/07 12:23:37;;;;;;;5.13;4.45;;;;;;;;;;5030951;28;20438;-72
2020/12/07 12:26:03;;;;;;;4.18;3.40;;;;;;;;;;5030578;28;20220;-72
2020/12/07 12:28:29;;;;;;;5.15;4.03;;;;;;;;;;5031629;28;20170;-72
2020/12/07 12:30:56;;;;;;;5.63;4.10;;;;;;;;;;5030386;28;20847;-72
2020/12/07 12:33:24;;;;;;;4.85;4.00;;;;;;;;;;5027285;28;20592;-72
2020/12/07 12:35:50;;;;;;;6.70;4.38;;;;;;;;;;5019997;28;20193;-72
2020/12/07 12:38:16;;;;;;;7.18;4.90;;;;;;;;;;5029548;28;20525;-72
2020/12/07 12:40:42;;;;;;;5.50;4.05;;;;;;;;;;5032514;28;20180;-72
2020/12/07 12:43:08;;;;;;;4.30;3.90;;;;;;;;;;5031414;28;20630;-72
2020/12/07 12:45:34;;;;;;;6.68;4.15;;;;;;;;;;5030347;28;20293;-72
2020/12/07 12:48:00;;;;;;;5.90;5.30;;;;;;;;;;5030800;28;20218;-72
2020/12/07 12:50:26;;;;;;;5.70;4.70;;;;;;;;;;5028648;28;20445;-72
2020/12/07 12:52:52;;;;;;;6.37;4.93;;;;;;;;;;5029829;28;20445;-72
2020/12/07 12:55:18;;;;;;;7.40;6.13;;;;;;;;;;5028242;28;20422;-72
2020/12/07 12:57:45;;;;;;;5.88;4.93;;;;;;;;;;5015186;28;20451;-72
2020/12/07 13:00:11;;;;;;;8.60;4.95;;;;;;;;;;5030265;28;20174;-72
2020/12/07 13:02:37;;;;;;;6.03;4.38;;;;;;;;;;5029923;28;20201;-72
2020/12/07 13:05:03;;;;;;;5.93;4.82;;;;;;;;;;5029899;28;20590;-72
2020/12/07 13:07:29;;;;;;;6.57;4.93;;;;;;;;;;5029962;28;20188;-72
2020/12/07 13:09:55;;;;;;;8.70;4.53;;;;;;;;;;5030251;28;20646;-73
2020/12/07 13:12:21;;;;;;;5.43;4.30;;;;;;;;;;5029648;28;20460;-72
2020/12/07 13:14:47;;;;;;;4.80;4.40;;;;;;;;;;5023998;28;20440;-72
2020/12/07 13:17:21;;;;;;;4.83;4.23;;;;;;;;;;5027745;28;20989;-72
2020/12/07 13:19:47;;;;;;;3.60;2.95;;;;;;;;;;5028047;28;20425;-72
2020/12/07 13:22:24;;;;;;;3.55;2.97;;;;;;;;;;5029881;28;20260;-72
2020/12/07 13:27:42;;;;;;;3.97;3.27;;;;;;;;;;5021628;28;20677;-72
2020/12/07 13:30:09;;;;;;;4.07;3.22;;;;;;;;;;5026134;28;20459;-72
2020/12/07 13:32:37;;;;;;;3.58;2.85;;;;;;;;;;5018961;28;20353;-72
2020/12/07 13:35:05;;;;;;;4.57;3.85;;;;;;;;;;5022379;28;20246;-72
2020/12/07 13:37:31;;;;;;;4.85;3.30;;;;;;;;;;5019050;28;20278;-72
2020/12/07 13:39:57;;;;;;;4.03;3.53;;;;;;;;;;5025166;28;20863;-72
2020/12/07 13:42:23;;;;;;;6.22;3.58;;;;;;;;;;5025818;28;20457;-72
2020/12/07 13:44:49;;;;;;;3.97;3.58;;;;;;;;;;5025695;28;20202;-73
2020/12/07 13:47:15;;;;;;;6.50;4.50;;;;;;;;;;5029874;28;20229;-72
2020/12/07 13:49:41;;;;;;;4.43;3.63;;;;;;;;;;5029360;28;20433;-73
2020/12/07 13:52:13;;;;;;;4.70;4.20;;;;;;;;;;5028185;28;20400;-73
2020/12/07 13:54:39;;;;;;;6.57;4.75;;;;;;;;;;5027079;28;20503;-76
2020/12/07 13:57:05;;;;;;;11.30;5.47;;;;;;;;;;5029589;28;20186;-76
2020/12/07 13:59:31;;;;;;;9.40;6.70;;;;;;;;;;5028798;28;20240;-75
2020/12/07 14:01:57;;;;;;;13.18;7.40;;;;;;;;;;5017747;28;20441;-76
2020/12/07 14:06:49;;;;;;;12.10;7.23;;;;;;;;;;5027747;28;20480;-73
2020/12/07 14:09:15;;;;;;;15.77;12.05;;;;;;;;;;5022038;28;20428;-73
2020/12/07 14:11:50;;;;;;;24.02;18.83;;;;;;;;;;5025191;28;20263;-73
2020/12/07 14:14:17;;;;;;;12.25;7.97;;;;;;;;;;5028724;28;20258;-73
2020/12/07 14:16:46;;;;;;;11.13;8.70;;;;;;;;;;5027692;28;20186;-73
2020/12/07 14:19:16;;;;;;;11.35;9.07;;;;;;;;;;5029375;28;20205;-73
2020/12/07 14:40:15;;;;;;;14.00;11.02;;;;;;;;;;5028753;28;20904;-73
2020/12/07 14:42:43;;;;;;;15.27;12.73;;;;;;;;;;5029373;28;20276;-73
2020/12/07 14:45:34;;;;;;;20.85;12.27;;;;;;;;;;5021698;28;20439;-73
2020/12/07 14:48:05;;;;;;;18.58;12.27;;;;;;;;;;5029173;28;20189;-73
2020/12/07 14:50:39;;;;;;;19.35;12.43;;;;;;;;;;5029244;28;20170;-72
2020/12/07 14:53:15;;;;;;;19.23;11.65;;;;;;;;;;5028601;28;20202;-73
2020/12/07 14:55:49;;;;;;;17.90;11.88;;;;;;;;;;5019158;28;20264;-72
2020/12/07 15:01:29;;;;;;;21.05;13.38;;;;;;;;;;5022358;28;20261;-72
2020/12/07 15:06:20;;;;;;;21.33;12.15;;;;;;;;;;5028815;28;20874;-72
2020/12/07 15:13:54;;;;;;;20.08;11.15;;;;;;;;;;5028575;28;20174;-72
2020/12/07 15:16:21;;;;;;;20.05;12.48;;;;;;;;;;5026784;28;20171;-72
2020/12/07 15:18:47;;;;;;;19.20;13.10;;;;;;;;;;5010722;28;20235;-72
2020/12/07 15:21:13;;;;;;;15.38;12.40;;;;;;;;;;5029710;28;20237;-72
2020/12/07 15:23:41;;;;;;;18.20;12.73;;;;;;;;;;5027208;28;20723;-72
2020/12/07 15:26:07;;;;;;;15.55;11.50;;;;;;;;;;5031313;28;20212;-72
2020/12/07 15:28:34;;;;;;;15.63;12.85;;;;;;;;;;5015387;28;20194;-72
2020/12/07 15:31:05;;;;;;;15.38;11.70;;;;;;;;;;5032811;28;20190;-73